Time;durP1;ratioP1;P1;durP2;ratioP2;P2;SDS_P1;SDS_P2;PMS_P1;PMS_P2;Temp;Humidity;BMP_temperature;BMP_pressure;BME280_temperature;BME280_humidity;BME280_pressure;Samples;Min_cycle;Max_cycle;Signal;HPM_P1;HPM_P2
2021/09/14 00:00:08;;;;;;;;;;;21.00;99.90;;;21.16;100.00;100062.84;5032382;28;19925;-62
2021/09/14 00:02:35;;;;;;;;;;;;;;;21.16;100.00;100062.06;5032374;28;19925;-62
2021/09/14 00:05:03;;;;;;;;;;;21.00;99.90;;;21.14;100.00;100056.16;5032600;28;19933;-62
2021/09/14 00:07:31;;;;;;;;;;;21.00;99.90;;;21.14;100.00;100062.44;5031413;28;20459;-62
2021/09/14 00:10:00;;;;;;;;;;;21.00;99.90;;;21.15;100.00;100066.00;5031958;28;19929;-62
2021/09/14 00:12:27;;;;;;;;;;;21.00;99.90;;;21.16;100.00;100071.09;5032311;28;20037;-62
2021/09/14 00:14:57;;;;;;;;;;;21.00;99.90;;;21.16;100.00;100076.59;5032426;28;19925;-62
2021/09/14 00:17:24;;;;;;;;;;;21.10;99.90;;;21.17;100.00;100080.94;5035185;28;19929;-62
2021/09/14 00:19:52;;;;;;;;;;;21.10;99.90;;;21.23;100.00;100084.13;5036121;28;19956;-63
2021/09/14 00:22:20;;;;;;;;;;;21.10;99.90;;;21.24;100.00;100083.75;5036446;28;19925;-62
2021/09/14 00:24:47;;;;;;;;;;;21.10;99.90;;;21.26;100.00;100083.38;5036166;28;20365;-63
2021/09/14 00:27:15;;;;;;;;;;;21.20;99.90;;;21.29;100.00;100084.56;5035419;28;19926;-62
2021/09/14 00:29:43;;;;;;;;;;;21.20;99.90;;;21.31;100.00;100083.00;5035655;28;19929;-62
2021/09/14 00:32:12;;;;;;;;;;;21.20;99.90;;;21.32;100.00;100090.09;5036195;28;20434;-62
2021/09/14 00:34:39;;;;;;;;;;;21.30;99.90;;;21.35;100.00;100089.34;5036012;28;19929;-62
2021/09/14 00:37:07;;;;;;;;;;;;;;;21.37;100.00;100086.22;5035308;28;19925;-62
2021/09/14 00:39:35;;;;;;;;;;;21.30;99.90;;;21.38;100.00;100093.28;5035872;28;19932;-62
2021/09/14 00:42:02;;;;;;;;;;;21.30;99.90;;;21.37;100.00;100092.50;5036106;28;19979;-62
2021/09/14 00:44:30;;;;;;;;;;;21.30;99.90;;;21.38;100.00;100101.53;5035829;28;19925;-62
2021/09/14 00:46:58;;;;;;;;;;;21.30;99.90;;;21.38;100.00;100096.84;5035218;28;19928;-62
2021/09/14 00:49:27;;;;;;;;;;;21.30;99.90;;;21.35;100.00;100097.59;5035256;28;19929;-62
2021/09/14 00:51:55;;;;;;;;;;;21.30;99.90;;;21.34;100.00;100089.75;5035979;28;19984;-62
2021/09/14 00:54:23;;;;;;;;;;;21.30;99.90;;;21.31;100.00;100088.50;5035582;28;19948;-62
2021/09/14 00:56:51;;;;;;;;;;;21.20;99.90;;;21.27;100.00;100090.47;5035030;28;19929;-62
2021/09/14 00:59:18;;;;;;;;;;;21.20;99.90;;;21.23;100.00;100082.16;5035017;28;19929;-63
2021/09/14 01:01:46;;;;;;;;;;;21.20;99.90;;;21.18;100.00;100076.22;5035762;28;19948;-62
2021/09/14 01:04:14;;;;;;;;;;;21.10;99.90;;;21.17;100.00;100074.66;5035514;28;20363;-62
2021/09/14 01:06:43;;;;;;;;;;;21.10;99.90;;;21.16;100.00;100078.56;5034921;28;19929;-62
2021/09/14 01:09:11;;;;;;;;;;;21.10;99.90;;;21.15;100.00;100079.75;5035230;28;20419;-62
2021/09/14 01:11:40;;;;;;;;;;;21.10;99.90;;;21.14;100.00;100089.94;5035285;28;20335;-62
2021/09/14 01:14:09;;;;;;;;;;;21.10;99.90;;;21.13;100.00;100101.31;5035367;28;20372;-62
2021/09/14 01:16:38;;;;;;;;;;;21.00;99.90;;;21.08;100.00;100094.19;5034601;28;19948;-62
2021/09/14 01:19:07;;;;;;;;;;;20.90;99.90;;;21.05;100.00;100083.94;5034741;28;19925;-62
2021/09/14 01:21:35;;;;;;;;;;;21.00;99.90;;;21.04;100.00;100081.53;5035145;28;20059;-62
2021/09/14 01:24:05;;;;;;;;;;;21.00;99.90;;;21.04;100.00;100073.28;5035162;28;20384;-62
2021/09/14 01:26:33;;;;;;;;;;;20.90;99.90;;;21.03;100.00;100066.25;5034058;28;19929;-62
2021/09/14 01:29:07;;;;;;;;;;;20.90;99.90;;;21.03;100.00;100069.00;5033947;28;19979;-62
2021/09/14 01:31:34;;;;;;;;;;;20.90;99.90;;;21.00;100.00;100062.28;5035289;28;19983;-62
2021/09/14 01:34:02;;;;;;;;;;;20.90;99.90;;;21.00;100.00;100053.25;5034914;28;19929;-62
2021/09/14 01:36:30;;;;;;;;;;;20.90;99.90;;;20.99;100.00;100057.16;5034434;28;19975;-62
2021/09/14 01:38:57;;;;;;;;;;;20.90;99.90;;;21.01;100.00;100044.63;5034683;28;19925;-63
2021/09/14 01:41:27;;;;;;;;;;;20.90;99.90;;;21.03;100.00;100033.25;5034876;28;19925;-62
2021/09/14 01:43:54;;;;;;;;;;;20.90;99.90;;;21.03;100.00;100036.00;5034706;28;19936;-62
2021/09/14 01:46:22;;;;;;;;;;;20.90;99.90;;;21.05;100.00;100025.41;5034271;28;19975;-62
2021/09/14 01:48:50;;;;;;;;;;;20.90;99.90;;;21.06;100.00;100029.75;5034215;28;20350;-62
2021/09/14 01:51:17;;;;;;;;;;;21.10;99.90;;;21.05;100.00;100028.16;5034576;28;19925;-62
2021/09/14 01:53:46;;;;;;;;;;;21.00;99.90;;;21.06;100.00;100024.25;5034557;28;19925;-63
2021/09/14 01:56:14;;;;;;;;;;;21.00;99.90;;;21.09;100.00;100012.53;5034220;28;19929;-62
2021/09/14 01:58:43;;;;;;;;;;;21.00;99.90;;;21.09;100.00;100002.31;5034146;28;20370;-62
2021/09/14 02:01:16;;;;;;;;;;;21.00;99.90;;;21.11;100.00;99993.69;5034329;28;19979;-62
2021/09/14 02:03:53;;;;;;;;;;;21.00;99.90;;;21.12;100.00;99987.81;5034351;28;19929;-62
2021/09/14 02:06:32;;;;;;;;;;;21.00;99.90;;;21.14;100.00;99982.72;5034032;28;19991;-62
2021/09/14 02:34:09;;;;;;;;;;;21.10;99.90;;;21.27;100.00;99947.47;4997971;28;19925;-62
2021/09/14 02:42:25;;;;;;;;;;;21.10;99.90;;;21.31;100.00;99959.25;5033847;28;19944;-62
2021/09/14 02:56:24;;;;;;;;;;;21.20;99.90;;;21.35;100.00;99934.53;5033195;28;19935;-62
2021/09/14 02:58:51;;;;;;;;;;;21.20;99.90;;;21.33;100.00;99925.91;5032709;28;19928;-63
2021/09/14 03:01:19;;;;;;;;;;;21.20;99.90;;;21.33;100.00;99915.69;5033524;28;20351;-62
2021/09/14 03:03:49;;;;;;;;;;;21.30;99.90;;;21.31;100.00;99912.53;5015571;28;19979;-62
2021/09/14 03:06:19;;;;;;;;;;;21.20;99.90;;;21.33;100.00;99921.19;5032732;28;20284;-62
2021/09/14 03:08:47;;;;;;;;;;;21.30;99.90;;;21.35;100.00;99920.78;5032759;28;19925;-62
2021/09/14 03:11:16;;;;;;;;;;;21.20;99.90;;;21.34;100.00;99911.00;5033167;28;19937;-62
2021/09/14 03:13:44;;;;;;;;;;;21.30;99.90;;;21.32;100.00;99905.06;5032803;28;20319;-62
2021/09/14 03:16:13;;;;;;;;;;;21.30;99.90;;;21.32;100.00;99908.59;5032580;28;19929;-62
2021/09/14 03:18:41;;;;;;;;;;;21.20;99.90;;;21.33;100.00;99914.91;5032459;28;19929;-62
2021/09/14 03:21:12;;;;;;;;;;;21.30;99.90;;;21.34;100.00;99916.47;5033073;28;19951;-62
2021/09/14 03:23:40;;;;;;;;;;;21.20;99.90;;;21.34;100.00;99902.75;5032920;28;20343;-62
2021/09/14 03:26:08;;;;;;;;;;;21.30;99.90;;;21.30;100.00;99882.66;5032581;28;19983;-62
2021/09/14 03:28:36;;;;;;;;;;;21.20;99.90;;;21.26;100.00;99871.66;5032194;28;20296;-62
2021/09/14 03:31:05;;;;;;;;;;;21.20;99.90;;;21.24;100.00;99863.00;5033064;28;19994;-62
2021/09/14 03:33:32;;;;;;;;;;;21.30;99.90;;;21.25;100.00;99872.81;5032598;28;19959;-62
2021/09/14 03:36:00;;;;;;;;;;;21.20;99.90;;;21.23;100.00;99867.72;5032357;28;20368;-62
2021/09/14 03:38:29;;;;;;;;;;;21.20;99.90;;;21.24;100.00;99882.25;5032219;28;19929;-62
2021/09/14 03:40:57;;;;;;;;;;;21.20;99.90;;;21.24;100.00;99876.75;5032899;28;19925;-62
2021/09/14 03:43:25;;;;;;;;;;;21.20;99.90;;;21.21;100.00;99875.56;5032369;28;19925;-62
2021/09/14 03:45:53;;;;;;;;;;;21.20;99.90;;;21.19;100.00;99874.34;5032141;28;19995;-62
2021/09/14 03:48:20;;;;;;;;;;;21.20;99.90;;;21.15;100.00;99857.06;5032268;28;19933;-62
2021/09/14 03:50:48;;;;;;;;;;;21.20;99.90;;;21.15;100.00;99852.34;5031997;28;19925;-62
2021/09/14 03:53:16;;;;;;;;;;;21.20;99.90;;;21.15;100.00;99835.06;5032412;28;19929;-62
2021/09/14 03:55:45;;;;;;;;;;;21.20;99.90;;;21.13;100.00;99832.69;5032178;28;20367;-63
2021/09/14 03:58:14;;;;;;;;;;;21.10;99.90;;;21.13;100.00;99827.19;5032033;28;19929;-62
2021/09/14 04:00:43;;;;;;;;;;;21.20;99.90;;;21.15;100.00;99824.06;5032677;28;19925;-62
2021/09/14 04:03:12;;;;;;;;;;;21.20;99.90;;;21.12;100.00;99833.88;5032185;28;19956;-62
2021/09/14 04:05:48;;;;;;;;;;;21.10;99.90;;;21.15;100.00;99835.06;5032037;28;20292;-62
2021/09/14 04:11:02;;;;;;;;;;;21.10;99.90;;;21.22;100.00;99844.13;5032542;28;19995;-62
2021/09/14 04:13:29;;;;;;;;;;;21.10;99.90;;;21.24;100.00;99849.25;5032072;28;20331;-62
2021/09/14 04:15:57;;;;;;;;;;;21.10;99.90;;;21.23;100.00;99851.22;5032040;28;19979;-62
2021/09/14 04:18:25;;;;;;;;;;;21.10;99.90;;;21.21;100.00;99839.81;5032089;28;19929;-62
2021/09/14 04:20:52;;;;;;;;;;;21.10;99.90;;;21.21;100.00;99836.28;5032323;28;19933;-62
2021/09/14 04:23:20;;;;;;;;;;;21.10;99.90;;;21.23;100.00;99840.22;5031985;28;19979;-62
2021/09/14 04:25:48;;;;;;;;;;;21.10;99.90;;;21.17;100.00;99829.97;5031924;28;20376;-62
2021/09/14 04:28:17;;;;;;;;;;;;;;;21.08;100.00;99834.97;5031920;28;19929;-62
2021/09/14 04:30:45;;;;;;;;;;;21.10;99.90;;;21.03;100.00;99843.59;5032069;28;19925;-62
2021/09/14 04:33:12;;;;;;;;;;;21.10;99.90;;;21.02;100.00;99850.25;5031866;28;19929;-62
2021/09/14 04:35:40;;;;;;;;;;;21.10;99.90;;;20.96;100.00;99851.78;5031828;28;19983;-62
2021/09/14 04:38:08;;;;;;;;;;;21.00;99.90;;;20.93;100.00;99861.59;5031914;28;19929;-62
2021/09/14 04:40:35;;;;;;;;;;;21.00;99.90;;;20.92;100.00;99859.22;5032021;28;19929;-62
2021/09/14 04:43:03;;;;;;;;;;;20.90;99.90;;;20.93;100.00;99858.03;5032286;28;19956;-62
2021/09/14 04:45:32;;;;;;;;;;;20.90;99.90;;;20.96;100.00;99854.53;5031824;28;19929;-62
2021/09/14 04:48:00;;;;;;;;;;;20.90;99.90;;;20.87;100.00;99843.09;5031390;28;19933;-62
2021/09/14 04:50:28;;;;;;;;;;;20.90;99.90;;;20.81;100.00;99845.41;5032154;28;19925;-62
2021/09/14 04:52:55;;;;;;;;;;;20.80;99.90;;;20.76;100.00;99834.78;5032079;28;19933;-62
2021/09/14 04:55:23;;;;;;;;;;;20.80;99.90;;;20.67;100.00;99839.81;5031905;28;19925;-62
2021/09/14 04:57:51;;;;;;;;;;;20.80;99.90;;;20.70;100.00;99841.81;5031375;28;19925;-62
2021/09/14 05:00:19;;;;;;;;;;;20.70;99.90;;;20.77;100.00;99846.53;5031690;28;19925;-63
2021/09/14 05:02:48;;;;;;;;;;;20.70;99.90;;;20.81;100.00;99850.09;5034219;28;20281;-62
2021/09/14 05:05:16;;;;;;;;;;;20.70;99.90;;;20.73;100.00;99849.28;5035558;28;19928;-62
2021/09/14 05:07:44;;;;;;;;;;;20.70;99.90;;;20.60;100.00;99848.78;5034853;28;19929;-62
2021/09/14 05:10:12;;;;;;;;;;;20.70;99.90;;;20.53;100.00;99850.66;5035356;28;19932;-62
2021/09/14 05:12:40;;;;;;;;;;;20.70;99.90;;;20.51;100.00;99859.31;5035355;28;20002;-62
2021/09/14 05:15:09;;;;;;;;;;;20.60;99.90;;;20.51;100.00;99839.28;5035185;28;20431;-63
2021/09/14 05:17:36;;;;;;;;;;;20.60;99.90;;;20.44;100.00;99839.22;5034672;28;19972;-62
2021/09/14 05:20:07;;;;;;;;;;;20.60;99.90;;;20.48;100.00;99831.81;5035245;28;19979;-62
2021/09/14 05:22:35;;;;;;;;;;;20.50;99.90;;;20.52;100.00;99829.84;5035286;28;19932;-62
2021/09/14 05:25:03;;;;;;;;;;;20.50;99.90;;;20.55;100.00;99842.81;5035144;28;19961;-62
2021/09/14 05:27:31;;;;;;;;;;;20.50;99.90;;;20.58;100.00;99833.84;5034444;28;19929;-63
2021/09/14 05:29:59;;;;;;;;;;;20.50;99.90;;;20.58;100.00;99831.88;5035047;28;19929;-62
2021/09/14 05:32:27;;;;;;;;;;;20.60;99.90;;;20.61;100.00;99842.09;5035214;28;19925;-62
2021/09/14 05:34:55;;;;;;;;;;;20.60;99.90;;;20.65;100.00;99844.88;5035130;28;19972;-62
2021/09/14 05:37:24;;;;;;;;;;;20.50;99.90;;;20.65;100.00;99842.94;5034265;28;19924;-62
2021/09/14 05:39:52;;;;;;;;;;;20.60;99.90;;;20.66;100.00;99861.00;5034741;28;19980;-62
2021/09/14 05:42:19;;;;;;;;;;;20.60;99.90;;;20.58;100.00;99864.84;5035114;28;19979;-62
2021/09/14 05:44:47;;;;;;;;;;;20.60;99.90;;;20.22;100.00;99876.63;5034807;28;19929;-62
2021/09/14 05:47:15;;;;;;;;;;;20.30;99.90;;;19.78;100.00;99867.53;5034126;28;19929;-62
2021/09/14 05:49:42;;;;;;;;;;;20.20;99.90;;;19.51;100.00;99884.06;5034588;28;19979;-62
2021/09/14 05:52:10;;;;;;;;;;;19.80;99.90;;;19.34;100.00;99883.75;5034871;28;19929;-62
2021/09/14 05:54:39;;;;;;;;;;;;;;;19.09;100.00;99878.72;5034347;28;19925;-62
2021/09/14 05:57:07;;;;;;;;;;;;;;;18.97;100.00;99891.81;5033870;28;19936;-62
2021/09/14 05:59:35;;;;;;;;;;;;;;;18.92;100.00;99868.28;5034117;28;19925;-62
2021/09/14 06:02:03;;;;;;;;;;;;;;;18.79;100.00;99855.94;5034546;28;19979;-62
2021/09/14 06:04:30;;;;;;;;;;;;;;;18.75;100.00;99854.31;5034351;28;19925;-61
2021/09/14 06:06:58;;;;;;;;;;;;;;;18.69;100.00;99855.78;5033520;28;19921;-62
2021/09/14 06:09:26;;;;;;;;;;;;;;;18.72;100.00;99849.59;5034055;28;20446;-62
2021/09/14 06:11:55;;;;;;;;;;;;;;;18.75;100.00;99859.81;5034662;28;19932;-62
2021/09/14 06:14:23;;;;;;;;;;;;;;;18.77;100.00;99857.47;5033591;28;19925;-62
2021/09/14 06:16:50;;;;;;;;;;;;;;;18.76;100.00;99855.88;5033658;28;19925;-62
2021/09/14 06:19:19;;;;;;;;;;;18.70;99.90;;;18.76;100.00;99845.72;5033942;28;20434;-61
2021/09/14 06:21:46;;;;;;;;;;;18.60;99.90;;;18.67;100.00;99847.94;5034457;28;19925;-62
2021/09/14 06:24:14;;;;;;;;;;;18.60;99.90;;;18.62;100.00;99845.50;5033942;28;19925;-62
2021/09/14 06:26:42;;;;;;;;;;;18.60;99.90;;;18.58;100.00;99858.34;5033405;28;19929;-62
2021/09/14 06:29:11;;;;;;;;;;;18.60;99.90;;;18.63;100.00;99870.94;5033852;28;19987;-62
2021/09/14 06:31:38;;;;;;;;;;;18.60;99.90;;;18.63;100.00;99869.00;5034067;28;19982;-62
2021/09/14 06:34:06;;;;;;;;;;;18.60;99.90;;;18.64;100.00;99861.56;5033605;28;19975;-62
2021/09/14 06:36:34;;;;;;;;;;;18.60;99.90;;;18.58;100.00;99863.03;5033025;28;19925;-62
2021/09/14 06:39:01;;;;;;;;;;;18.60;99.90;;;18.65;100.00;99888.59;5033813;28;19932;-62
2021/09/14 06:41:29;;;;;;;;;;;18.60;99.90;;;18.77;100.00;99898.56;5033876;28;20369;-62
2021/09/14 06:43:57;;;;;;;;;;;18.60;99.90;;;18.78;100.00;99898.22;5033368;28;19941;-62
2021/09/14 06:46:27;;;;;;;;;;;18.60;99.90;;;18.73;100.00;99895.75;5033176;28;19925;-62
2021/09/14 06:48:54;;;;;;;;;;;18.60;99.90;;;18.68;100.00;99890.59;5033091;28;20403;-62
2021/09/14 06:51:22;;;;;;;;;;;18.60;99.90;;;18.67;100.00;99889.00;5033666;28;20372;-63
2021/09/14 06:53:50;;;;;;;;;;;18.60;99.90;;;18.48;100.00;99889.81;5033159;28;19979;-62
2021/09/14 06:56:18;;;;;;;;;;;18.60;99.90;;;18.53;100.00;99903.25;5033202;28;20343;-62
2021/09/14 06:58:47;;;;;;;;;;;18.60;99.90;;;18.67;100.00;99901.91;5032901;28;19929;-62
2021/09/14 07:01:18;;;;;;;;;;;18.60;99.90;;;18.83;100.00;99892.41;5033468;28;20043;-62
2021/09/14 07:03:47;;;;;;;;;;;18.60;99.90;;;19.05;100.00;99891.59;5032992;28;19925;-62
2021/09/14 07:06:15;;;;;;;;;;;18.70;99.90;;;19.20;100.00;99876.13;5032824;28;19933;-62
2021/09/14 07:08:43;;;;;;;;;;;18.90;99.90;;;19.33;100.00;99857.53;5032846;28;19987;-62
2021/09/14 07:11:11;;;;;;;;;;;19.00;99.90;;;19.38;100.00;99863.47;5033239;28;19929;-62
2021/09/14 07:13:38;;;;;;;;;;;19.10;99.90;;;19.41;100.00;99853.75;5032904;28;20340;-62
2021/09/14 07:16:06;;;;;;;;;;;19.20;99.90;;;19.48;100.00;99865.59;5032523;28;20368;-62
2021/09/14 07:18:38;;;;;;;;;;;19.30;99.90;;;19.70;100.00;99865.88;5032617;28;19925;-62
2021/09/14 07:21:07;;;;;;;;;;;19.30;99.90;;;19.73;100.00;99854.91;5033144;28;19925;-62
2021/09/14 07:23:34;;;;;;;;;;;19.40;99.90;;;19.64;100.00;99860.69;5032730;28;20359;-62
2021/09/14 07:26:02;;;;;;;;;;;19.40;99.90;;;19.64;100.00;99863.44;5031466;28;19933;-62
2021/09/14 07:28:30;;;;;;;;;;;19.40;99.90;;;19.53;100.00;99856.25;5032494;28;19929;-62
2021/09/14 07:30:57;;;;;;;;;;;19.40;99.90;;;19.33;100.00;99843.81;5032850;28;19929;-62
2021/09/14 07:33:25;;;;;;;;;;;19.40;99.90;;;19.21;100.00;99852.28;5032584;28;20430;-62
2021/09/14 07:35:53;;;;;;;;;;;19.30;99.90;;;19.07;100.00;99839.16;5032308;28;19933;-62
2021/09/14 07:38:22;;;;;;;;;;;19.20;99.90;;;18.99;100.00;99837.47;5032278;28;19925;-61
2021/09/14 07:40:50;;;;;;;;;;;19.10;99.90;;;19.00;100.00;99828.06;5032631;28;19929;-62
2021/09/14 07:43:18;;;;;;;;;;;19.10;99.90;;;18.99;100.00;99832.78;5032438;28;19932;-62
2021/09/14 07:45:45;;;;;;;;;;;19.10;99.90;;;19.08;100.00;99830.56;5032281;28;20277;-62
2021/09/14 07:48:13;;;;;;;;;;;19.10;99.90;;;19.16;100.00;99819.69;5032000;28;20339;-62
2021/09/14 07:50:40;;;;;;;;;;;19.20;99.90;;;19.14;100.00;99820.06;5032591;28;19925;-62
2021/09/14 07:53:08;;;;;;;;;;;19.20;99.90;;;19.22;100.00;99815.47;5032575;28;19932;-62
2021/09/14 07:55:37;;;;;;;;;;;19.30;99.90;;;19.30;100.00;99828.13;5032234;28;20362;-62
2021/09/14 07:58:05;;;;;;;;;;;19.30;99.90;;;19.44;100.00;99825.56;5031997;28;20372;-62
2021/09/14 08:00:33;;;;;;;;;;;19.40;99.90;;;19.58;100.00;99832.03;5032610;28;19972;-62
2021/09/14 08:03:01;;;;;;;;;;;19.50;99.90;;;19.81;100.00;99826.41;5032380;28;19925;-62
2021/09/14 08:05:29;;;;;;;;;;;19.60;99.90;;;20.12;100.00;99833.41;5032516;28;20346;-62
2021/09/14 08:07:57;;;;;;;;;;;19.80;99.90;;;20.80;100.00;99835.56;5031485;28;19929;-61
2021/09/14 08:10:25;;;;;;;;;;;;;;;21.71;100.00;99829.81;5032233;28;19936;-62
2021/09/14 08:12:54;;;;;;;;;;;20.80;99.90;;;22.60;100.00;99839.03;5032359;28;19936;-62
2021/09/14 08:15:22;;;;;;;;;;;21.40;99.90;;;23.19;100.00;99826.34;5032140;28;20375;-62
2021/09/14 08:17:50;;;;;;;;;;;22.10;99.90;;;23.60;100.00;99820.34;5031338;28;19929;-62
2021/09/14 08:20:17;;;;;;;;;;;22.50;99.90;;;23.82;100.00;99836.41;5032069;28;20281;-62
2021/09/14 08:22:45;;;;;;;;;;;22.90;99.90;;;23.86;100.00;99839.91;5032242;28;20422;-62
2021/09/14 08:25:13;;;;;;;;;;;23.10;99.90;;;23.99;100.00;99851.28;5032119;28;20300;-62
2021/09/14 08:27:41;;;;;;;;;;;23.30;99.90;;;24.27;100.00;99859.44;5031171;28;19925;-62
2021/09/14 08:30:12;;;;;;;;;;;23.50;99.90;;;24.31;100.00;99859.41;5031987;28;20016;-62
2021/09/14 08:32:40;;;;;;;;;;;23.70;99.90;;;24.24;100.00;99870.50;5032232;28;20411;-62
2021/09/14 08:35:08;;;;;;;;;;;23.80;99.90;;;24.29;100.00;99861.78;5032056;28;20269;-62
2021/09/14 08:37:35;;;;;;;;;;;23.90;99.90;;;24.27;100.00;99869.69;5033614;28;20389;-62
2021/09/14 08:40:04;;;;;;;;;;;23.90;99.90;;;24.01;100.00;99870.22;5035833;28;19925;-63
2021/09/14 08:42:36;;;;;;;;;;;23.90;99.90;;;23.77;100.00;99871.94;5036111;28;19933;-62
2021/09/14 08:45:05;;;;;;;;;;;23.80;99.90;;;23.63;100.00;99874.72;5035932;28;19929;-63
2021/09/14 08:47:34;;;;;;;;;;;23.70;99.90;;;23.68;100.00;99872.34;5034997;28;19929;-62
2021/09/14 08:50:02;;;;;;;;;;;23.70;99.90;;;24.05;100.00;99880.06;5035613;28;19933;-62
2021/09/14 08:52:29;;;;;;;;;;;23.80;99.90;;;24.43;100.00;99878.28;5035818;28;19925;-62
2021/09/14 08:54:57;;;;;;;;;;;24.00;99.90;;;24.68;100.00;99889.16;5035651;28;19979;-62
2021/09/14 08:57:25;;;;;;;;;;;24.20;99.90;;;24.73;100.00;99897.81;5034798;28;19929;-62
2021/09/14 08:59:57;;;;;;;;;;;24.40;99.90;;;24.69;100.00;99896.25;5035407;28;19933;-62
2021/09/14 09:02:25;;;;;;;;;;;24.60;99.90;;;24.91;100.00;99904.00;5035778;28;19925;-62
2021/09/14 09:04:58;;;;;;;;;;;24.80;99.90;;;25.51;100.00;99900.66;5035384;28;19928;-62
2021/09/14 09:07:34;;;;;;;;;;;25.20;99.90;;;26.02;100.00;99904.41;5034706;28;19932;-62
2021/09/14 09:10:12;;;;;;;;;;;25.30;99.90;;;26.27;100.00;99888.25;5035230;28;19979;-62
2021/09/14 09:12:44;;;;;;;;;;;25.70;99.90;;;26.48;100.00;99887.91;5034723;28;20210;-62
2021/09/14 09:15:22;;;;;;;;;;;26.00;99.90;;;26.69;100.00;99899.91;5035373;28;20047;-63
2021/09/14 09:18:04;;;;;;;;;;;26.20;99.90;;;26.89;100.00;99914.66;5034622;28;20028;-63
2021/09/14 09:20:34;;;;;;;;;;;26.40;99.90;;;26.87;100.00;99915.06;5035266;28;19933;-62
2021/09/14 09:23:03;;;;;;;;;;;26.50;99.90;;;26.58;100.00;99916.69;5035052;28;20464;-62
2021/09/14 09:25:31;;;;;;;;;;;26.50;99.90;;;26.60;100.00;99914.28;5035177;28;19979;-63
2021/09/14 09:28:10;;;;;;;;;;;26.50;99.90;;;26.72;100.00;99916.47;5034543;28;19975;-63
2021/09/14 09:30:39;;;;;;;;;;;26.50;99.90;;;26.65;100.00;99913.81;5035139;28;20435;-62
2021/09/14 09:33:08;;;;;;;;;;;26.60;99.90;;;26.70;100.00;99921.66;5034970;28;19929;-63
2021/09/14 09:35:38;;;;;;;;;;;26.70;99.90;;;26.52;100.00;99913.63;5034630;28;20011;-62
2021/09/14 09:38:07;;;;;;;;;;;26.60;99.90;;;26.07;100.00;99906.72;5034856;28;19979;-62
2021/09/14 09:40:37;;;;;;;;;;;26.50;99.90;;;25.53;100.00;99905.78;5034907;28;20394;-62
2021/09/14 09:43:07;;;;;;;;;;;26.10;99.90;;;25.09;100.00;99901.06;5034733;28;19925;-63
2021/09/14 09:45:42;;;;;;;;;;;25.80;99.90;;;24.72;100.00;99917.53;5034610;28;20300;-63
2021/09/14 09:48:10;;;;;;;;;;;25.40;99.90;;;24.43;100.00;99917.75;5033358;28;20024;-63
2021/09/14 09:50:40;;;;;;;;;;;25.10;99.90;;;24.24;100.00;99914.72;5034554;28;19933;-63
2021/09/14 09:53:09;;;;;;;;;;;24.80;99.90;;;24.15;100.00;99906.88;5034486;28;19983;-62
2021/09/14 09:55:38;;;;;;;;;;;24.60;99.90;;;24.14;100.00;99904.50;5034447;28;19925;-62
2021/09/14 09:58:06;;;;;;;;;;;24.40;99.90;;;24.21;100.00;99896.97;5034162;28;19929;-62
2021/09/14 10:00:37;;;;;;;;;;;24.40;99.90;;;24.32;100.00;99910.72;5034325;28;20304;-62
2021/09/14 10:03:07;;;;;;;;;;;24.40;99.90;;;24.42;100.00;99918.16;5034283;28;19925;-62
2021/09/14 10:05:37;;;;;;;;;;;24.40;99.90;;;24.43;100.00;99916.97;5034210;28;19979;-62
2021/09/14 10:08:10;;;;;;;;;;;24.50;99.90;;;24.30;100.00;99935.19;5033990;28;19925;-62
2021/09/14 10:10:39;;;;;;;;;;;24.40;99.90;;;24.20;100.00;99942.34;5034240;28;20361;-62
2021/09/14 10:13:08;;;;;;;;;;;24.40;99.90;;;24.03;100.00;99942.41;5034038;28;19995;-62
2021/09/14 10:15:40;;;;;;;;;;;24.30;99.90;;;23.81;100.00;99948.00;5034131;28;19932;-63
2021/09/14 10:18:09;;;;;;;;;;;24.10;99.90;;;23.62;100.00;99940.19;5033894;28;20027;-62
2021/09/14 10:20:41;;;;;;;;;;;24.00;99.90;;;23.52;100.00;99954.81;5033924;28;20327;-62
2021/09/14 10:23:18;;;;;;;;;;;23.80;99.90;;;23.35;100.00;99947.31;5033814;28;19929;-62
2021/09/14 10:25:50;;;;;;;;;;;23.70;99.90;;;23.18;100.00;99945.38;5033754;28;19955;-62
2021/09/14 10:28:19;;;;;;;;;;;23.60;99.90;;;23.09;100.00;99942.22;5033647;28;20277;-62
2021/09/14 10:30:48;;;;;;;;;;;23.40;99.90;;;23.05;100.00;99927.63;5033985;28;20447;-62
2021/09/14 10:33:20;;;;;;;;;;;23.30;99.90;;;23.17;100.00;99925.25;5033636;28;19926;-62
2021/09/14 10:35:48;;;;;;;;;;;23.30;99.90;;;23.39;100.00;99917.78;5033312;28;19925;-62
2021/09/14 10:38:18;;;;;;;;;;;23.40;99.90;;;23.68;100.00;99905.47;5033447;28;19929;-62
2021/09/14 10:40:47;;;;;;;;;;;23.60;99.90;;;24.14;100.00;99908.06;5033767;28;19979;-63
2021/09/14 10:43:25;;;;;;;;;;;23.90;99.90;;;24.48;100.00;99906.28;5033603;28;20423;-63
2021/09/14 10:45:53;;;;;;;;;;;24.20;99.90;;;24.56;100.00;99909.78;5033308;28;20341;-62
2021/09/14 10:48:22;;;;;;;;;;;24.40;99.90;;;24.39;100.00;99924.50;5033078;28;19929;-63
2021/09/14 10:50:50;;;;;;;;;;;24.50;99.90;;;24.16;100.00;99924.25;5033333;28;19925;-62
2021/09/14 10:53:30;;;;;;;;;;;24.40;99.90;;;23.85;100.00;99931.44;5033302;28;19944;-62
2021/09/14 10:55:59;;;;;;;;;;;24.30;99.90;;;23.64;100.00;99940.59;5033184;28;20028;-62
2021/09/14 10:58:28;;;;;;;;;;;24.10;99.90;;;23.51;100.00;99952.44;5033005;28;20266;-62
2021/09/14 11:00:56;;;;;;;;;;;23.90;99.90;;;23.32;100.00;99959.13;5033102;28;20029;-62
2021/09/14 11:03:23;;;;;;;;;;;23.80;99.90;;;23.03;100.00;99968.63;5032987;28;19925;-62
2021/09/14 11:05:53;;;;;;;;;;;23.60;99.90;;;22.81;100.00;99973.31;5033081;28;20423;-62
2021/09/14 11:08:26;;;;;;;;;;;23.30;99.90;;;22.66;100.00;99964.25;5032783;28;20028;-62
2021/09/14 11:11:01;;;;;;;;;;;23.10;99.90;;;22.64;100.00;99972.09;5032964;28;19925;-62
2021/09/14 11:13:30;;;;;;;;;;;23.00;99.90;;;22.58;100.00;99961.84;5032888;28;19929;-62
2021/09/14 11:16:00;;;;;;;;;;;22.90;99.90;;;22.56;100.00;99956.72;5032625;28;19936;-62
2021/09/14 11:18:29;;;;;;;;;;;22.90;99.90;;;22.62;100.00;99955.16;5032734;28;19980;-62
2021/09/14 11:21:03;;;;;;;;;;;22.80;99.90;;;22.61;100.00;99950.03;5033187;28;20365;-62
2021/09/14 11:23:31;;;;;;;;;;;22.80;99.90;;;22.73;100.00;99950.50;5032902;28;19925;-62
2021/09/14 11:26:00;;;;;;;;;;;22.90;99.90;;;23.05;100.00;99952.44;5032460;28;20024;-62
2021/09/14 11:28:28;;;;;;;;;;;23.00;99.90;;;23.42;100.00;99950.09;5032424;28;19929;-62
2021/09/14 11:30:58;;;;;;;;;;;23.20;99.90;;;23.74;100.00;99958.31;5032808;28;19925;-62
2021/09/14 11:33:27;;;;;;;;;;;23.50;99.90;;;24.07;100.00;99955.03;5032773;28;19929;-62
2021/09/14 11:35:56;;;;;;;;;;;24.00;99.90;;;24.33;100.00;99950.97;5032335;28;19936;-62
2021/09/14 11:38:24;;;;;;;;;;;24.10;99.90;;;24.85;100.00;99938.03;5032043;28;19925;-62
2021/09/14 11:40:53;;;;;;;;;;;24.40;99.90;;;25.10;100.00;99935.06;5032602;28;19925;-62
2021/09/14 11:43:24;;;;;;;;;;;24.60;99.90;;;25.32;100.00;99908.75;5032729;28;19980;-62
2021/09/14 11:45:52;;;;;;;;;;;24.90;99.90;;;25.48;100.00;99928.34;5032155;28;19960;-62
2021/09/14 11:48:22;;;;;;;;;;;25.10;99.90;;;25.30;100.00;99933.28;5032096;28;19925;-62
2021/09/14 11:51:12;;;;;;;;;;;25.20;99.90;;;25.13;100.00;99929.50;5032491;28;19925;-62
2021/09/14 11:53:41;;;;;;;;;;;25.10;99.90;;;25.13;100.00;99915.66;5032392;28;19940;-63
2021/09/14 11:56:12;;;;;;;;;;;25.10;99.90;;;25.14;100.00;99917.22;5032075;28;20384;-62
2021/09/14 11:58:44;;;;;;;;;;;25.10;99.90;;;25.19;100.00;99911.25;5032024;28;19933;-62
2021/09/14 12:01:12;;;;;;;;;;;25.10;99.90;;;25.32;100.00;99906.75;5032521;28;19964;-62
2021/09/14 12:03:43;;;;;;;;;;;25.10;99.90;;;25.50;100.00;99903.84;5032461;28;19929;-62